Time;durP1;ratioP1;P1;durP2;ratioP2;P2;SDS_P1;SDS_P2;PMS_P1;PMS_P2;Temp;Humidity;BMP_temperature;BMP_pressure;BME280_temperature;BME280_humidity;BME280_pressure;Samples;Min_cycle;Max_cycle;Signal;HPM_P1;HPM_P2
2021/12/30 00:01:06;;;;;;;3.72;2.65;;;9.80;53.00;;;;;;5097079;28;20581;-48
2021/12/30 00:03:34;;;;;;;2.70;1.50;;;9.80;53.00;;;;;;5096360;28;20611;-48
2021/12/30 00:06:02;;;;;;;5.38;2.90;;;9.80;52.90;;;;;;5096821;28;20196;-48
2021/12/30 00:08:30;;;;;;;5.95;2.65;;;9.80;52.90;;;;;;5096895;28;20168;-49
2021/12/30 00:10:58;;;;;;;2.42;1.58;;;9.80;52.90;;;;;;5079126;28;20221;-49
2021/12/30 00:13:26;;;;;;;3.08;2.10;;;9.90;53.10;;;;;;5095918;28;20501;-48
2021/12/30 00:15:54;;;;;;;4.80;2.25;;;9.90;53.00;;;;;;5096941;28;20163;-48
2021/12/30 00:18:22;;;;;;;4.03;1.92;;;9.90;53.00;;;;;;5095908;28;20650;-49
2021/12/30 00:20:49;;;;;;;3.08;1.70;;;9.90;53.00;;;;;;5096896;28;20281;-48
2021/12/30 00:23:16;;;;;;;2.88;1.83;;;10.00;53.00;;;;;;5096832;28;20176;-48
2021/12/30 00:25:44;;;;;;;2.25;1.48;;;10.00;53.00;;;;;;5095785;28;20210;-47
2021/12/30 00:28:19;;;;;;;3.33;1.85;;;10.00;52.80;;;;;;5096454;28;20166;-48
2021/12/30 00:30:48;;;;;;;2.70;1.75;;;10.00;52.70;;;;;;5096488;28;20151;-48
2021/12/30 00:33:16;;;;;;;3.95;1.98;;;10.00;52.90;;;;;;5095721;28;20164;-48
2021/12/30 00:35:43;;;;;;;2.45;1.15;;;10.00;52.90;;;;;;5096061;28;20168;-48
2021/12/30 00:38:11;;;;;;;4.55;1.55;;;9.90;53.00;;;;;;5095712;28;20174;-48
2021/12/30 00:40:39;;;;;;;4.00;1.67;;;9.90;53.10;;;;;;5095535;28;20185;-49
2021/12/30 00:43:07;;;;;;;5.13;1.70;;;9.90;53.20;;;;;;5078827;28;20189;-49
2021/12/30 00:45:36;;;;;;;4.63;2.05;;;9.90;53.30;;;;;;5095237;28;20192;-48
2021/12/30 00:48:06;;;;;;;3.75;1.85;;;9.90;53.40;;;;;;5096072;28;20260;-48
2021/12/30 00:50:36;;;;;;;3.42;1.90;;;10.00;53.30;;;;;;5095240;28;20171;-48
2021/12/30 00:53:05;;;;;;;2.65;2.00;;;10.00;53.30;;;;;;5096523;28;20174;-48
2021/12/30 00:55:33;;;;;;;2.53;1.45;;;10.00;53.20;;;;;;5078615;28;20248;-49
2021/12/30 00:58:01;;;;;;;4.28;1.70;;;10.10;53.30;;;;;;5095289;28;20165;-48
2021/12/30 01:00:29;;;;;;;3.17;1.60;;;10.10;53.30;;;;;;5095030;28;20602;-48
2021/12/30 01:02:57;;;;;;;2.83;1.52;;;10.10;53.30;;;;;;5095786;28;20200;-48
2021/12/30 01:05:25;;;;;;;2.95;1.55;;;10.00;53.30;;;;;;5095001;28;20198;-48
2021/12/30 01:07:52;;;;;;;2.38;1.48;;;10.00;53.40;;;;;;5094923;28;20163;-48
2021/12/30 01:10:23;;;;;;;2.97;2.05;;;10.00;53.40;;;;;;5095754;28;20249;-48
2021/12/30 01:12:53;;;;;;;2.25;1.30;;;10.00;53.80;;;;;;5094721;28;20154;-48
2021/12/30 01:15:34;;;;;;;4.32;1.77;;;10.00;53.70;;;;;;5094792;28;20180;-48
2021/12/30 01:18:24;;;;;;;2.90;0.98;;;10.00;53.70;;;;;;5079059;28;20572;-48
2021/12/30 01:20:53;;;;;;;4.28;1.85;;;9.90;53.70;;;;;;5094485;28;20176;-48
2021/12/30 01:23:20;;;;;;;14.98;2.70;;;10.00;53.70;;;;;;5095519;28;20167;-49
2021/12/30 01:25:48;;;;;;;4.45;1.80;;;9.90;53.70;;;;;;5094971;28;20191;-48
2021/12/30 01:28:16;;;;;;;3.33;1.67;;;10.00;53.70;;;;;;5094917;28;20175;-49
2021/12/30 01:30:44;;;;;;;2.63;1.73;;;10.00;53.60;;;;;;5094695;28;20223;-48
2021/12/30 01:33:11;;;;;;;2.70;1.60;;;10.00;53.70;;;;;;5094660;28;20154;-49
2021/12/30 01:35:39;;;;;;;2.28;1.35;;;10.00;53.60;;;;;;5095502;28;20591;-48
2021/12/30 01:38:11;;;;;;;2.55;1.40;;;10.00;53.60;;;;;;5095736;28;20170;-48
2021/12/30 01:40:41;;;;;;;1.75;1.17;;;10.00;53.80;;;;;;5094936;28;20179;-48
2021/12/30 01:43:10;;;;;;;2.80;1.95;;;10.00;53.70;;;;;;5095433;28;20163;-48
2021/12/30 01:45:40;;;;;;;2.55;1.38;;;10.00;53.80;;;;;;5094317;28;20208;-48
2021/12/30 01:48:08;;;;;;;2.83;1.33;;;10.00;53.80;;;;;;5094351;28;20186;-48
2021/12/30 01:50:53;;;;;;;3.65;2.28;;;10.00;53.70;;;;;;5077670;28;20166;-48
2021/12/30 01:53:21;;;;;;;3.80;2.50;;;10.00;53.70;;;;;;5094724;28;20164;-48
2021/12/30 01:55:49;;;;;;;2.55;1.85;;;10.00;53.70;;;;;;5094291;28;20170;-49
2021/12/30 01:58:18;;;;;;;2.78;1.70;;;10.00;53.80;;;;;;5095015;28;20183;-49
2021/12/30 02:03:32;;;;;;;4.78;2.00;;;10.00;53.70;;;;;;5094129;28;20188;-48
2021/12/30 02:06:00;;;;;;;3.03;1.88;;;10.00;53.70;;;;;;5094863;28;20195;-48
2021/12/30 02:08:27;;;;;;;6.25;1.88;;;10.00;53.80;;;;;;5094913;28;20164;-48
2021/12/30 02:10:54;;;;;;;3.03;2.30;;;10.00;53.80;;;;;;5094007;28;20179;-48
2021/12/30 02:13:22;;;;;;;2.65;1.75;;;10.00;53.70;;;;;;5095006;28;20259;-48
2021/12/30 02:15:50;;;;;;;2.95;1.50;;;10.10;54.00;;;;;;5078984;28;20170;-48
2021/12/30 02:18:18;;;;;;;2.90;1.92;;;10.00;53.90;;;;;;5098195;28;20160;-49
2021/12/30 02:20:58;;;;;;;3.92;1.83;;;10.00;54.00;;;;;;5098980;28;20164;-48
2021/12/30 02:23:29;;;;;;;3.53;2.22;;;10.00;54.10;;;;;;5098594;28;20174;-48
2021/12/30 02:25:59;;;;;;;2.65;1.35;;;10.10;54.20;;;;;;5098045;28;20633;-48
2021/12/30 02:28:30;;;;;;;1.63;1.27;;;10.10;54.10;;;;;;5099100;28;20174;-49
2021/12/30 02:31:00;;;;;;;5.75;3.25;;;10.10;54.10;;;;;;5098002;28;20164;-48
2021/12/30 02:33:28;;;;;;;4.88;2.85;;;10.10;54.10;;;;;;5097989;28;20224;-49
2021/12/30 02:35:57;;;;;;;2.50;1.25;;;10.10;54.30;;;;;;5097835;28;20172;-49
2021/12/30 02:38:25;;;;;;;2.55;0.85;;;10.10;54.30;;;;;;5097959;28;20602;-48
2021/12/30 02:40:56;;;;;;;3.30;1.77;;;10.10;54.50;;;;;;5097653;28;20208;-49
2021/12/30 02:43:30;;;;;;;3.65;2.10;;;10.10;54.50;;;;;;5098800;28;20159;-48
2021/12/30 02:45:59;;;;;;;5.30;2.28;;;10.10;54.60;;;;;;5097769;28;20220;-48
2021/12/30 02:48:30;;;;;;;2.00;1.80;;;10.10;54.50;;;;;;5097875;28;20167;-49
2021/12/30 02:51:02;;;;;;;5.32;2.05;;;10.10;54.50;;;;;;5098981;28;20173;-48
2021/12/30 02:53:34;;;;;;;3.88;1.30;;;10.10;54.70;;;;;;5097798;28;20614;-48
2021/12/30 02:56:03;;;;;;;3.55;1.38;;;10.10;54.70;;;;;;5097825;28;20530;-48
2021/12/30 02:58:31;;;;;;;2.70;1.90;;;10.20;55.40;;;;;;5098421;28;20168;-47
2021/12/30 03:01:20;;;;;;;3.60;2.25;;;10.20;54.60;;;;;;5097552;28;20173;-48
2021/12/30 03:03:47;;;;;;;4.15;1.80;;;10.20;54.60;;;;;;5098152;28;20151;-49
2021/12/30 03:06:16;;;;;;;5.55;2.97;;;10.20;54.70;;;;;;5097232;28;20659;-48
2021/12/30 03:08:45;;;;;;;5.40;3.15;;;10.20;54.70;;;;;;5098433;28;20175;-48
2021/12/30 03:11:13;;;;;;;4.18;2.13;;;10.20;54.90;;;;;;5098308;28;20156;-48
2021/12/30 03:14:05;;;;;;;4.93;3.00;;;10.20;54.80;;;;;;5097137;28;20600;-48
2021/12/30 03:16:36;;;;;;;2.55;1.65;;;10.20;54.80;;;;;;5097964;28;20194;-48
2021/12/30 03:19:05;;;;;;;2.13;1.63;;;10.30;55.00;;;;;;5096865;28;20216;-49
2021/12/30 03:21:33;;;;;;;3.53;2.15;;;10.30;54.90;;;;;;5097742;28;20189;-48
2021/12/30 03:24:02;;;;;;;4.70;2.97;;;10.30;55.10;;;;;;5097105;28;20175;-47
2021/12/30 03:26:31;;;;;;;2.05;1.50;;;10.30;54.80;;;;;;5096198;28;20188;-48
2021/12/30 03:28:59;;;;;;;4.45;2.20;;;10.30;55.00;;;;;;5096343;28;20195;-48
2021/12/30 03:31:27;;;;;;;2.95;2.05;;;10.30;55.00;;;;;;5097711;28;20166;-48
2021/12/30 03:33:55;;;;;;;3.05;2.08;;;10.30;55.00;;;;;;5097597;28;20168;-48
2021/12/30 03:36:22;;;;;;;3.90;1.58;;;10.30;55.00;;;;;;5097543;28;20253;-48
2021/12/30 03:38:53;;;;;;;2.95;1.92;;;10.30;55.00;;;;;;5096655;28;20181;-48
2021/12/30 03:41:26;;;;;;;2.38;1.30;;;10.30;55.00;;;;;;5097074;28;20251;-48
2021/12/30 03:43:55;;;;;;;3.13;1.55;;;10.40;55.00;;;;;;5096614;28;20186;-48
2021/12/30 03:46:23;;;;;;;3.97;2.10;;;10.40;55.00;;;;;;5097456;28;20658;-48
2021/12/30 03:48:50;;;;;;;2.35;1.40;;;10.40;54.90;;;;;;5096888;28;20199;-48
2021/12/30 03:51:21;;;;;;;4.38;2.10;;;10.50;54.90;;;;;;5097185;28;20539;-48
2021/12/30 03:53:52;;;;;;;5.22;1.98;;;10.40;54.70;;;;;;5097337;28;20489;-48
2021/12/30 03:56:22;;;;;;;3.38;1.35;;;10.40;55.00;;;;;;5079857;28;20213;-48
2021/12/30 03:58:50;;;;;;;3.65;2.15;;;10.40;54.90;;;;;;5097204;28;20246;-49
2021/12/30 04:01:20;;;;;;;2.03;1.42;;;10.40;54.90;;;;;;5096908;28;20172;-48
2021/12/30 04:03:48;;;;;;;3.40;1.42;;;10.40;54.80;;;;;;5097218;28;20168;-48
2021/12/30 04:06:16;;;;;;;6.88;1.60;;;10.40;54.80;;;;;;5097097;28;20513;-48
2021/12/30 04:08:44;;;;;;;3.55;2.30;;;10.40;55.60;;;;;;5096284;28;20463;-47
2021/12/30 04:11:12;;;;;;;2.33;1.90;;;10.40;54.80;;;;;;5095941;28;20542;-48
2021/12/30 04:13:39;;;;;;;2.85;1.58;;;10.40;54.80;;;;;;5096826;28;20163;-48
2021/12/30 04:16:07;;;;;;;2.92;1.85;;;10.40;55.00;;;;;;5095910;28;20163;-48
2021/12/30 04:18:35;;;;;;;2.67;1.48;;;10.40;55.00;;;;;;5096907;28;20659;-48
2021/12/30 04:21:04;;;;;;;2.97;1.85;;;10.40;55.00;;;;;;5096907;28;20176;-48
2021/12/30 04:23:31;;;;;;;2.88;1.17;;;10.40;54.90;;;;;;5096661;28;20172;-50
2021/12/30 04:25:59;;;;;;;2.92;1.40;;;10.50;55.10;;;;;;5095850;28;20187;-48
2021/12/30 04:28:27;;;;;;;1.77;1.05;;;10.50;54.90;;;;;;5096722;28;20168;-48
2021/12/30 04:30:54;;;;;;;4.82;1.25;;;10.50;54.90;;;;;;5095822;28;20247;-48
2021/12/30 04:33:22;;;;;;;2.90;1.98;;;10.50;54.80;;;;;;5096430;28;20172;-48
2021/12/30 04:35:55;;;;;;;2.80;1.35;;;10.40;54.80;;;;;;5095438;28;20167;-48
2021/12/30 04:38:29;;;;;;;2.13;1.10;;;10.50;55.30;;;;;;5095929;28;20629;-49
2021/12/30 04:40:57;;;;;;;4.72;2.45;;;10.50;55.30;;;;;;5096476;28;20320;-48
2021/12/30 04:43:25;;;;;;;2.92;2.55;;;10.60;55.40;;;;;;5096407;28;20482;-47
2021/12/30 04:45:53;;;;;;;2.00;1.13;;;10.60;55.20;;;;;;5096187;28;20635;-49
2021/12/30 04:48:21;;;;;;;1.92;1.08;;;10.70;55.40;;;;;;5096441;28;20172;-48
2021/12/30 04:50:49;;;;;;;2.50;1.25;;;10.70;55.60;;;;;;5095623;28;20171;-48
2021/12/30 04:53:18;;;;;;;1.70;0.90;;;10.70;56.30;;;;;;5095234;28;20156;-48
2021/12/30 04:55:47;;;;;;;2.95;0.95;;;10.80;56.10;;;;;;5095389;28;20174;-48
2021/12/30 04:58:15;;;;;;;3.55;1.60;;;10.90;56.10;;;;;;5095188;28;20559;-48
2021/12/30 05:00:43;;;;;;;2.47;1.17;;;10.90;56.00;;;;;;5095289;28;20163;-48
2021/12/30 05:03:12;;;;;;;1.77;1.02;;;11.00;55.90;;;;;;5078864;28;20231;-48
2021/12/30 05:05:45;;;;;;;2.75;1.30;;;11.10;56.00;;;;;;5094935;28;20505;-49
2021/12/30 05:08:14;;;;;;;3.13;0.77;;;11.10;56.20;;;;;;5095097;28;20168;-48
2021/12/30 05:10:42;;;;;;;2.83;1.15;;;11.20;56.20;;;;;;5095083;28;20163;-48
2021/12/30 05:13:10;;;;;;;1.95;0.88;;;11.30;56.10;;;;;;5094838;28;20218;-49
2021/12/30 05:15:39;;;;;;;1.60;0.82;;;11.30;56.00;;;;;;5096149;28;20171;-48
2021/12/30 05:18:12;;;;;;;1.92;0.88;;;11.40;56.00;;;;;;5094631;28;20168;-48
2021/12/30 05:20:40;;;;;;;1.90;0.88;;;11.40;56.00;;;;;;5095636;28;20152;-48
2021/12/30 05:23:09;;;;;;;3.78;1.23;;;11.40;56.00;;;;;;5094509;28;20183;-48
2021/12/30 05:25:37;;;;;;;1.63;0.90;;;11.50;56.00;;;;;;5094607;28;20199;-48
2021/12/30 05:28:05;;;;;;;1.95;1.02;;;11.50;56.00;;;;;;5095638;28;20485;-49
2021/12/30 05:30:33;;;;;;;1.63;0.80;;;11.50;56.00;;;;;;5094529;28;20159;-48
2021/12/30 05:33:01;;;;;;;2.70;1.17;;;11.50;56.10;;;;;;5078065;28;20483;-48
2021/12/30 05:35:29;;;;;;;2.33;1.00;;;11.60;56.10;;;;;;5095336;28;20494;-48
2021/12/30 05:37:57;;;;;;;1.30;0.47;;;11.60;56.20;;;;;;5094604;28;20190;-48
2021/12/30 05:40:24;;;;;;;1.40;0.57;;;11.60;56.30;;;;;;5095439;28;20249;-48
2021/12/30 05:42:52;;;;;;;1.50;0.68;;;11.70;56.70;;;;;;5093935;28;20544;-48
2021/12/30 05:45:21;;;;;;;2.08;0.77;;;11.70;56.80;;;;;;5095195;28;20177;-48
2021/12/30 05:47:50;;;;;;;1.25;0.40;;;11.70;56.60;;;;;;5095297;28;20160;-48
2021/12/30 05:50:23;;;;;;;2.63;0.90;;;11.80;56.60;;;;;;5093703;28;20513;-49
2021/12/30 05:52:50;;;;;;;1.63;0.70;;;11.90;56.70;;;;;;5095342;28;20609;-48
2021/12/30 05:55:19;;;;;;;1.73;0.65;;;11.90;56.90;;;;;;5095187;28;20535;-48
2021/12/30 05:57:49;;;;;;;1.70;0.73;;;12.00;56.90;;;;;;5095007;28;20669;-48
2021/12/30 06:00:19;;;;;;;1.73;0.85;;;12.00;56.90;;;;;;5077635;28;20203;-49
2021/12/30 06:02:47;;;;;;;2.30;0.63;;;12.00;56.80;;;;;;5095030;28;20168;-48
2021/12/30 06:05:14;;;;;;;1.52;0.50;;;12.10;56.80;;;;;;5095038;28;20247;-49
2021/12/30 06:07:42;;;;;;;3.25;0.95;;;12.10;56.90;;;;;;5094481;28;20168;-48
2021/12/30 06:10:10;;;;;;;1.20;0.60;;;12.20;56.90;;;;;;5094041;28;20167;-48
2021/12/30 06:12:38;;;;;;;1.95;0.60;;;12.20;57.00;;;;;;5094908;28;20608;-49
2021/12/30 06:15:06;;;;;;;2.03;1.00;;;12.30;57.50;;;;;;5094374;28;20229;-48
2021/12/30 06:17:34;;;;;;;1.20;0.50;;;12.40;57.20;;;;;;5095259;28;20160;-48
2021/12/30 06:20:01;;;;;;;2.83;1.65;;;12.40;57.10;;;;;;5094427;28;20240;-48
2021/12/30 06:22:28;;;;;;;1.30;0.63;;;12.50;57.10;;;;;;5094766;28;20164;-48
2021/12/30 06:24:56;;;;;;;2.00;0.70;;;12.60;57.10;;;;;;5094717;28;20171;-49
2021/12/30 06:27:24;;;;;;;2.13;1.00;;;12.60;57.10;;;;;;5094745;28;20223;-49
2021/12/30 06:29:51;;;;;;;2.33;0.93;;;12.70;57.20;;;;;;5093970;28;20199;-48
2021/12/30 06:32:19;;;;;;;1.83;0.73;;;12.70;57.10;;;;;;5094709;28;20160;-49
2021/12/30 06:34:46;;;;;;;2.03;1.10;;;12.80;56.90;;;;;;5093871;28;20178;-48
2021/12/30 06:37:13;;;;;;;3.65;0.85;;;12.80;56.80;;;;;;5094188;28;20298;-49
2021/12/30 06:39:41;;;;;;;1.20;0.50;;;12.80;56.70;;;;;;5093979;28;20254;-49
2021/12/30 06:42:08;;;;;;;2.33;1.10;;;12.80;57.00;;;;;;5076853;28;20556;-49
2021/12/30 06:44:36;;;;;;;1.60;0.73;;;12.80;56.80;;;;;;5093828;28;20290;-49
2021/12/30 06:47:05;;;;;;;1.58;0.70;;;12.80;56.80;;;;;;5094578;28;20187;-48
2021/12/30 06:49:36;;;;;;;1.48;0.50;;;12.80;56.80;;;;;;5077226;28;20175;-48
2021/12/30 06:52:06;;;;;;;1.20;0.50;;;12.90;56.80;;;;;;5094739;28;20145;-48
2021/12/30 06:54:34;;;;;;;1.30;0.50;;;12.80;56.70;;;;;;5077384;28;20168;-48
2021/12/30 06:57:02;;;;;;;1.63;0.57;;;12.80;56.70;;;;;;5093750;28;20597;-48
2021/12/30 06:59:31;;;;;;;1.90;0.50;;;12.80;56.50;;;;;;5093637;28;20179;-48
2021/12/30 07:01:58;;;;;;;6.15;0.85;;;12.80;56.20;;;;;;5078731;28;20171;-48
2021/12/30 07:04:29;;;;;;;1.30;0.57;;;12.80;56.40;;;;;;5097290;28;20172;-48
2021/12/30 07:06:56;;;;;;;1.75;0.50;;;12.70;56.50;;;;;;5098086;28;20617;-48
2021/12/30 07:09:24;;;;;;;2.38;1.10;;;12.70;56.40;;;;;;5098103;28;20174;-48
2021/12/30 07:11:52;;;;;;;2.05;0.70;;;12.70;56.30;;;;;;5097220;28;20175;-48
2021/12/30 07:14:21;;;;;;;1.30;0.60;;;12.60;56.10;;;;;;5097367;28;20239;-48
2021/12/30 07:16:49;;;;;;;1.80;0.73;;;12.60;56.20;;;;;;5097880;28;20206;-49
2021/12/30 07:19:17;;;;;;;3.65;1.48;;;12.50;56.30;;;;;;5097002;28;20179;-50
2021/12/30 07:21:44;;;;;;;2.33;0.90;;;12.50;56.40;;;;;;5096963;28;20163;-50
2021/12/30 07:24:12;;;;;;;1.85;0.90;;;12.50;56.50;;;;;;5096928;28;20167;-49
2021/12/30 07:26:39;;;;;;;1.73;0.60;;;12.50;56.40;;;;;;5097961;28;20210;-49
2021/12/30 07:29:07;;;;;;;1.75;0.80;;;12.50;56.30;;;;;;5097039;28;20163;-49
2021/12/30 07:31:35;;;;;;;4.50;2.00;;;12.50;56.20;;;;;;5097640;28;20156;-49
2021/12/30 07:34:02;;;;;;;1.50;0.75;;;12.50;56.30;;;;;;5097679;28;20501;-49
2021/12/30 07:36:30;;;;;;;2.20;1.58;;;12.40;56.10;;;;;;5097680;28;20171;-49
2021/12/30 07:38:58;;;;;;;1.83;0.98;;;12.40;56.20;;;;;;5096870;28;20175;-49
2021/12/30 07:41:26;;;;;;;1.52;0.70;;;12.40;56.40;;;;;;5097236;28;20212;-49
2021/12/30 07:43:54;;;;;;;1.77;0.60;;;12.40;56.60;;;;;;5097612;28;20172;-50
2021/12/30 07:46:21;;;;;;;1.10;0.30;;;12.40;56.60;;;;;;5096388;28;20183;-50
2021/12/30 07:48:49;;;;;;;2.00;1.10;;;12.50;56.50;;;;;;5096358;28;20180;-50
2021/12/30 07:51:17;;;;;;;1.60;1.08;;;12.50;56.60;;;;;;5097380;28;20611;-50
2021/12/30 07:53:45;;;;;;;1.20;0.50;;;12.50;56.60;;;;;;5096385;28;20164;-49
2021/12/30 07:56:13;;;;;;;7.18;1.17;;;12.60;56.50;;;;;;5097342;28;20172;-49
2021/12/30 07:58:40;;;;;;;1.65;0.73;;;12.60;56.50;;;;;;5096273;28;20179;-49
2021/12/30 08:01:08;;;;;;;2.13;1.20;;;12.60;56.50;;;;;;5097112;28;20160;-50
2021/12/30 08:03:35;;;;;;;1.20;0.50;;;12.60;56.60;;;;;;5097064;28;20172;-50
2021/12/30 08:06:03;;;;;;;1.85;0.80;;;12.70;57.00;;;;;;5097154;28;20272;-48
2021/12/30 08:08:30;;;;;;;1.50;0.70;;;12.80;56.90;;;;;;5097743;28;20191;-49
2021/12/30 08:10:58;;;;;;;1.20;0.50;;;12.90;56.80;;;;;;5097220;28;20188;-48
2021/12/30 08:13:26;;;;;;;2.85;1.10;;;13.00;56.70;;;;;;5095389;28;20596;-49
2021/12/30 08:15:54;;;;;;;2.45;1.00;;;13.00;56.50;;;;;;5096846;28;20160;-49
2021/12/30 08:18:21;;;;;;;1.73;0.88;;;13.10;56.50;;;;;;5095874;28;20627;-49
2021/12/30 08:20:49;;;;;;;1.67;1.10;;;13.10;56.40;;;;;;5096991;28;20601;-50
2021/12/30 08:23:16;;;;;;;1.83;1.02;;;13.20;56.30;;;;;;5095833;28;20545;-49
2021/12/30 08:25:49;;;;;;;2.13;1.17;;;13.20;56.20;;;;;;5095878;28;20267;-50
2021/12/30 08:28:18;;;;;;;1.75;1.13;;;13.30;56.40;;;;;;5096800;28;20252;-49
2021/12/30 08:30:46;;;;;;;2.38;1.48;;;13.30;56.30;;;;;;5095507;28;20167;-50
2021/12/30 08:33:14;;;;;;;1.90;1.10;;;13.30;56.30;;;;;;5096622;28;20174;-49
2021/12/30 08:35:41;;;;;;;2.45;1.10;;;13.30;56.20;;;;;;5096669;28;20164;-48
2021/12/30 08:38:09;;;;;;;1.65;0.80;;;13.40;56.20;;;;;;5096345;28;20168;-48
2021/12/30 08:40:37;;;;;;;1.98;1.10;;;13.40;56.30;;;;;;5078531;28;20164;-51
2021/12/30 08:43:06;;;;;;;1.65;0.68;;;13.40;56.10;;;;;;5095392;28;20156;-49
2021/12/30 08:45:36;;;;;;;2.05;1.00;;;13.50;56.20;;;;;;5078718;28;20204;-48
2021/12/30 08:48:04;;;;;;;2.30;1.40;;;13.50;56.10;;;;;;5095303;28;20164;-49
2021/12/30 08:50:32;;;;;;;1.90;1.15;;;13.50;56.20;;;;;;5096144;28;20179;-49
2021/12/30 08:52:59;;;;;;;2.75;1.20;;;13.50;56.20;;;;;;5096006;28;20168;-49
2021/12/30 08:55:27;;;;;;;2.70;1.35;;;13.60;56.10;;;;;;5096002;28;20168;-49
2021/12/30 08:57:55;;;;;;;2.92;1.73;;;13.60;56.10;;;;;;5078546;28;20163;-48
2021/12/30 09:00:29;;;;;;;1.70;0.90;;;13.70;56.30;;;;;;5096305;28;20539;-50
2021/12/30 09:02:58;;;;;;;2.05;1.30;;;13.80;56.30;;;;;;5095127;28;20145;-49
2021/12/30 09:05:26;;;;;;;1.73;0.90;;;13.80;56.20;;;;;;5078179;28;20156;-49
2021/12/30 09:07:53;;;;;;;3.17;1.88;;;13.80;56.20;;;;;;5078260;28;20176;-48
2021/12/30 09:10:21;;;;;;;2.90;1.80;;;13.80;56.30;;;;;;5094799;28;20233;-49
2021/12/30 09:12:50;;;;;;;1.90;1.20;;;13.80;56.20;;;;;;5095724;28;20171;-48
2021/12/30 09:15:19;;;;;;;1.50;0.80;;;13.80;56.10;;;;;;5095797;28;20257;-48
2021/12/30 09:17:47;;;;;;;3.70;1.55;;;13.90;56.20;;;;;;5094933;28;20222;-49
2021/12/30 09:20:17;;;;;;;2.60;1.58;;;13.90;56.10;;;;;;5095715;28;20251;-48
2021/12/30 09:22:44;;;;;;;2.50;1.30;;;14.00;56.00;;;;;;5094636;28;20176;-48
2021/12/30 09:25:13;;;;;;;1.98;1.10;;;14.00;55.90;;;;;;5077505;28;20171;-49
2021/12/30 09:27:42;;;;;;;2.42;1.00;;;14.10;55.80;;;;;;5077628;28;20241;-49
2021/12/30 09:30:12;;;;;;;2.38;1.05;;;14.10;55.80;;;;;;5094524;28;20255;-48
2021/12/30 09:32:41;;;;;;;2.22;1.20;;;14.10;55.70;;;;;;5095854;28;20152;-49
2021/12/30 09:35:10;;;;;;;2.55;1.30;;;14.20;55.50;;;;;;5095328;28;20300;-49
2021/12/30 09:37:38;;;;;;;1.98;1.20;;;14.20;55.60;;;;;;5095480;28;20198;-49
2021/12/30 09:40:10;;;;;;;1.98;1.35;;;14.20;55.50;;;;;;5077771;28;20160;-48
2021/12/30 09:42:39;;;;;;;3.17;1.55;;;14.30;55.10;;;;;;5094020;28;20223;-50
2021/12/30 09:45:07;;;;;;;1.63;1.10;;;14.30;55.20;;;;;;5095235;28;20172;-49
2021/12/30 09:47:35;;;;;;;7.65;1.73;;;14.40;55.20;;;;;;5095040;28;20537;-49
2021/12/30 09:50:04;;;;;;;2.90;1.33;;;14.50;55.30;;;;;;5095194;28;20229;-51
2021/12/30 09:52:31;;;;;;;2.25;1.80;;;14.70;55.00;;;;;;5094331;28;20164;-49
2021/12/30 09:54:59;;;;;;;9.48;1.27;;;14.80;54.80;;;;;;5095226;28;20246;-49
2021/12/30 09:57:27;;;;;;;2.22;1.05;;;14.90;54.30;;;;;;5095169;28;20229;-49
2021/12/30 09:59:55;;;;;;;1.55;0.77;;;14.90;53.90;;;;;;5094859;28;20164;-49
2021/12/30 10:02:23;;;;;;;2.70;1.50;;;14.90;53.80;;;;;;5094992;28;20196;-48
2021/12/30 10:05:08;;;;;;;8.07;1.58;;;15.00;54.10;;;;;;5094894;28;20167;-50
2021/12/30 10:07:39;;;;;;;1.75;1.17;;;15.10;53.70;;;;;;5094081;28;20636;-49
2021/12/30 10:10:25;;;;;;;1.92;1.00;;;15.20;54.40;;;;;;5094070;28;20167;-48
2021/12/30 10:12:52;;;;;;;2.85;1.50;;;15.20;53.20;;;;;;5095046;28;20160;-48
2021/12/30 10:15:24;;;;;;;1.40;0.90;;;15.20;53.50;;;;;;5093909;28;20193;-49
2021/12/30 10:18:01;;;;;;;2.00;1.23;;;15.20;53.40;;;;;;5094879;28;20242;-49
2021/12/30 10:20:32;;;;;;;2.78;1.45;;;15.20;53.60;;;;;;5094212;28;20160;-50
2021/12/30 10:23:12;;;;;;;2.67;1.00;;;15.30;53.80;;;;;;5093922;28;20164;-49
2021/12/30 10:25:42;;;;;;;3.60;0.85;;;15.30;53.70;;;;;;5094055;28;20190;-48
2021/12/30 10:28:36;;;;;;;2.13;1.00;;;15.40;53.20;;;;;;5078029;28;20156;-49
2021/12/30 10:31:12;;;;;;;3.75;1.20;;;15.30;53.60;;;;;;5077687;28;20171;-49
2021/12/30 10:33:53;;;;;;;3.40;0.85;;;15.40;53.70;;;;;;5093699;28;20172;-49
2021/12/30 10:36:23;;;;;;;1.55;0.90;;;15.40;53.50;;;;;;5094585;28;20172;-49
2021/12/30 10:38:51;;;;;;;3.83;1.35;;;15.40;53.50;;;;;;5097845;28;20175;-49
2021/12/30 10:41:23;;;;;;;1.73;0.90;;;15.40;53.50;;;;;;5080938;28;20216;-49
2021/12/30 10:43:57;;;;;;;2.65;1.50;;;15.40;53.30;;;;;;5097746;28;20237;-49
2021/12/30 10:46:30;;;;;;;2.10;1.00;;;15.50;53.00;;;;;;5098506;28;20205;-48
2021/12/30 10:49:10;;;;;;;1.70;1.02;;;15.40;53.30;;;;;;5081049;28;20508;-50
2021/12/30 10:51:43;;;;;;;5.57;1.27;;;15.50;53.60;;;;;;5098746;28;20269;-49
2021/12/30 10:54:13;;;;;;;1.45;0.88;;;15.60;53.70;;;;;;5098388;28;20244;-49
2021/12/30 10:56:46;;;;;;;2.40;1.08;;;15.60;53.60;;;;;;5097676;28;20167;-48
2021/12/30 10:59:25;;;;;;;1.65;0.82;;;15.60;53.60;;;;;;5097629;28;20659;-48
2021/12/30 11:02:03;;;;;;;1.92;1.20;;;15.60;53.40;;;;;;5098234;28;20654;-48
2021/12/30 11:04:38;;;;;;;2.10;0.95;;;15.60;53.60;;;;;;5098512;28;20175;-47
2021/12/30 11:07:07;;;;;;;1.90;1.02;;;15.60;53.60;;;;;;5098041;28;20192;-48
2021/12/30 11:09:36;;;;;;;4.25;1.58;;;15.60;53.60;;;;;;5098132;28;20609;-48
2021/12/30 11:12:07;;;;;;;2.10;1.00;;;15.60;53.60;;;;;;5080784;28;20171;-48
2021/12/30 11:14:38;;;;;;;4.22;0.93;;;15.60;53.80;;;;;;5097321;28;20155;-48
2021/12/30 11:17:16;;;;;;;1.38;0.70;;;15.60;53.90;;;;;;5097398;28;20620;-48
2021/12/30 11:19:50;;;;;;;1.30;0.65;;;15.60;54.00;;;;;;5097181;28;20170;-49
2021/12/30 11:22:21;;;;;;;1.45;0.60;;;15.50;53.80;;;;;;5098093;28;20201;-49
2021/12/30 11:24:50;;;;;;;1.58;0.90;;;15.60;53.80;;;;;;5097119;28;20195;-48
2021/12/30 11:27:19;;;;;;;1.33;0.73;;;15.60;53.90;;;;;;5096893;28;20246;-49
2021/12/30 11:29:51;;;;;;;1.73;0.82;;;15.50;54.00;;;;;;5096774;28;20156;-49
2021/12/30 11:32:27;;;;;;;98.93;34.20;;;15.60;54.00;;;;;;5097912;28;20206;-50
2021/12/30 11:34:55;;;;;;;5.22;2.60;;;15.60;53.90;;;;;;5080435;28;20183;-49
2021/12/30 11:37:23;;;;;;;3.80;0.73;;;15.60;53.90;;;;;;5096815;28;20237;-49
2021/12/30 11:39:56;;;;;;;3.38;0.60;;;15.60;54.20;;;;;;5096829;28;20160;-49
2021/12/30 11:42:25;;;;;;;1.63;0.75;;;15.60;54.30;;;;;;5096162;28;20224;-49
2021/12/30 11:45:02;;;;;;;1.20;0.52;;;15.60;54.30;;;;;;5097386;28;20175;-48
2021/12/30 11:47:37;;;;;;;1.60;0.80;;;15.70;54.40;;;;;;5079746;28;20203;-48
2021/12/30 11:50:30;;;;;;;1.30;0.50;;;15.70;54.40;;;;;;5096791;28;20492;-48
2021/12/30 11:52:59;;;;;;;1.30;0.60;;;15.80;54.50;;;;;;5096422;28;20160;-49
2021/12/30 11:55:54;;;;;;;4.57;0.90;;;15.80;54.50;;;;;;5096324;28;20470;-49
2021/12/30 11:58:45;;;;;;;2.30;0.60;;;15.90;54.50;;;;;;5097279;28;20156;-50
2021/12/30 12:01:12;;;;;;;1.48;0.50;;;15.90;54.40;;;;;;5097381;28;20225;-50
2021/12/30 12:03:47;;;;;;;1.58;0.82;;;15.90;54.10;;;;;;5096059;28;20328;-50
2021/12/30 12:06:34;;;;;;;1.80;0.50;;;16.00;54.20;;;;;;5096149;28;20656;-51
2021/12/30 12:09:13;;;;;;;1.35;0.43;;;16.00;54.20;;;;;;5096251;28;20640;-51
2021/12/30 12:12:02;;;;;;;3.08;0.93;;;16.00;53.90;;;;;;5096253;28;20217;-50
2021/12/30 12:14:59;;;;;;;1.73;0.47;;;16.00;54.10;;;;;;5096907;28;20554;-49
2021/12/30 12:17:35;;;;;;;2.70;1.10;;;16.10;54.10;;;;;;5096006;28;20230;-50
2021/12/30 12:20:17;;;;;;;2.15;1.13;;;16.10;54.00;;;;;;5095942;28;20171;-50
2021/12/30 12:22:45;;;;;;;1.42;0.70;;;16.10;54.00;;;;;;5079928;28;20185;-49
2021/12/30 12:25:25;;;;;;;1.10;0.40;;;16.20;53.80;;;;;;5095958;28;20662;-50
2021/12/30 12:27:54;;;;;;;1.65;0.70;;;16.20;53.80;;;;;;5079326;28;20646;-49
2021/12/30 12:30:33;;;;;;;2.70;0.70;;;16.20;53.90;;;;;;5096521;28;20168;-49
2021/12/30 12:33:27;;;;;;;1.25;0.70;;;16.10;54.00;;;;;;5095883;28;20207;-50
2021/12/30 12:35:56;;;;;;;1.40;0.60;;;16.10;54.20;;;;;;5096501;28;20596;-49
2021/12/30 12:38:43;;;;;;;1.30;0.50;;;16.00;54.70;;;;;;5095671;28;20168;-49
2021/12/30 12:41:27;;;;;;;1.67;0.50;;;16.00;55.00;;;;;;5096071;28;20223;-50
2021/12/30 12:44:04;;;;;;;1.30;0.60;;;16.00;55.30;;;;;;5096507;28;20714;-49
2021/12/30 12:46:46;;;;;;;1.20;0.40;;;16.00;55.70;;;;;;5096254;28;20187;-49
2021/12/30 12:49:15;;;;;;;2.42;0.82;;;16.00;55.40;;;;;;5095305;28;20181;-49
2021/12/30 12:51:55;;;;;;;1.17;0.45;;;16.00;55.50;;;;;;5096425;28;20172;-49
2021/12/30 12:54:50;;;;;;;2.05;0.95;;;16.00;55.80;;;;;;5078684;28;20164;-50
2021/12/30 12:57:21;;;;;;;1.30;0.50;;;16.00;56.00;;;;;;5096067;28;20156;-50
2021/12/30 12:59:49;;;;;;;1.98;0.47;;;16.00;55.90;;;;;;5095662;28;20254;-49
2021/12/30 13:02:17;;;;;;;2.15;0.60;;;16.00;56.10;;;;;;5096002;28;20242;-49
2021/12/30 13:04:45;;;;;;;2.70;0.65;;;15.80;56.80;;;;;;5095858;28;20168;-50
2021/12/30 13:07:19;;;;;;;2.53;0.93;;;15.80;56.70;;;;;;5094909;28;20219;-49